createdAt,value
2022-10-09T00:01:31.395Z,98609.40
2022-10-09T00:04:52.008Z,98611.23
2022-10-09T00:08:30.005Z,98610.29
2022-10-09T00:12:08.046Z,98610.41
2022-10-09T00:15:45.923Z,98615.21
2022-10-09T00:19:22.401Z,98619.05
2022-10-09T00:23:18.953Z,98627.52
2022-10-09T00:26:39.377Z,98626.32
2022-10-09T00:30:17.170Z,98632.86
2022-10-09T00:34:13.454Z,98637.45
2022-10-09T00:37:52.650Z,98636.21
2022-10-09T00:41:17.316Z,98638.90
2022-10-09T00:45:18.909Z,98646.52
2022-10-09T00:48:39.463Z,98650.16
2022-10-09T00:52:17.764Z,98646.23
2022-10-09T00:56:14.003Z,98650.17
2022-10-09T00:59:36.616Z,98645.85
2022-10-09T01:03:12.487Z,98646.97
2022-10-09T01:06:53.041Z,98647.55
2022-10-09T01:10:35.734Z,98649.38
2022-10-09T01:14:18.691Z,98654.20
2022-10-09T01:18:05.829Z,98650.81
2022-10-09T01:22:04.720Z,98649.73
2022-10-09T01:25:57.330Z,98651.41
2022-10-09T01:29:21.574Z,98658.42
2022-10-09T01:32:58.386Z,98663.98
2022-10-09T01:36:55.933Z,98665.82
2022-10-09T01:40:17.744Z,98666.66
2022-10-09T01:44:28.610Z,98667.09
2022-10-09T01:47:49.517Z,98664.69
2022-10-09T01:51:35.026Z,98667.89
2022-10-09T01:55:42.084Z,98673.79
2022-10-09T01:59:14.834Z,98674.40
2022-10-09T02:02:45.897Z,98678.13
2022-10-09T02:06:19.842Z,98681.86
2022-10-09T02:09:56.873Z,98686.23
2022-10-09T02:13:35.459Z,98688.29
2022-10-09T02:17:18.895Z,98692.77
2022-10-09T02:20:55.641Z,98697.40
2022-10-09T02:24:46.198Z,98702.84
2022-10-09T02:28:25.876Z,98704.43
2022-10-09T02:31:47.404Z,98713.97
2022-10-09T02:35:24.318Z,98717.79
2022-10-09T02:39:03.515Z,98723.86
2022-10-09T02:42:39.629Z,98721.89
2022-10-09T02:46:17.964Z,98721.87
2022-10-09T02:50:14.001Z,98721.96
2022-10-09T02:53:55.017Z,98732.45
2022-10-09T02:57:15.877Z,98735.88
2022-10-09T03:00:53.961Z,98738.14
2022-10-09T03:04:31.205Z,98743.80
2022-10-09T03:08:08.784Z,98747.92
2022-10-09T03:11:46.526Z,98751.80
2022-10-09T03:15:24.186Z,98756.02
2022-10-09T03:19:01.883Z,98754.30
2022-10-09T03:22:39.553Z,98761.38
2022-10-09T03:26:36.040Z,98764.69
2022-10-09T03:29:58.591Z,98773.06
2022-10-09T03:33:53.284Z,98772.13
2022-10-09T03:37:14.295Z,98779.53
2022-10-09T03:40:52.396Z,98779.34
2022-10-09T03:44:29.623Z,98782.83
2022-10-09T03:48:09.707Z,98786.02
2022-10-09T03:52:04.157Z,98786.94
2022-10-09T03:55:43.889Z,98790.90
2022-10-09T03:59:07.468Z,98802.33
2022-10-09T04:03:02.359Z,98795.73
2022-10-09T04:06:42.229Z,98802.77
2022-10-09T04:10:21.761Z,98807.86
2022-10-09T04:14:02.561Z,98810.59
2022-10-09T04:17:42.217Z,98810.11
2022-10-09T04:21:02.827Z,98816.56
2022-10-09T04:24:40.464Z,98819.33
2022-10-09T04:28:37.574Z,98820.36
2022-10-09T04:31:58.994Z,98823.42
2022-10-09T04:35:36.426Z,98826.61
2022-10-09T04:39:13.969Z,98831.33
2022-10-09T04:43:10.542Z,98839.86
2022-10-09T04:46:31.214Z,98840.99
2022-10-09T04:50:09.309Z,98843.72
2022-10-09T04:53:46.677Z,98851.98
2022-10-09T04:57:24.193Z,98858.21
2022-10-09T05:01:06.649Z,98859.49
2022-10-09T05:04:39.633Z,98865.66
2022-10-09T05:08:17.257Z,98866.27
2022-10-09T05:12:13.787Z,98866.85
2022-10-09T05:15:37.917Z,98871.52
2022-10-09T05:19:32.064Z,98875.20
2022-10-09T05:22:53.138Z,98876.01
2022-10-09T05:26:30.662Z,98881.95
2022-10-09T05:30:09.385Z,98888.45
2022-10-09T05:33:46.748Z,98892.70
2022-10-09T05:37:23.844Z,98896.21
2022-10-09T05:41:04.972Z,98899.67
2022-10-09T05:44:39.590Z,98901.98
2022-10-09T05:48:16.704Z,98906.73
2022-10-09T05:51:56.082Z,98908.20
2022-10-09T05:55:32.186Z,98909.00
2022-10-09T05:59:15.676Z,98917.09
2022-10-09T06:02:47.717Z,98919.85
2022-10-09T06:06:28.226Z,98926.45
2022-10-09T06:10:03.671Z,98931.04
2022-10-09T06:13:41.441Z,98938.64
2022-10-09T06:17:18.263Z,98941.27
2022-10-09T06:20:58.309Z,98944.91
2022-10-09T06:24:33.697Z,98948.54
2022-10-09T06:28:11.846Z,98952.13
2022-10-09T06:32:07.822Z,98962.30
2022-10-09T06:35:28.763Z,98964.05
2022-10-09T06:39:10.672Z,98970.41
2022-10-09T06:42:45.485Z,98970.86
2022-10-09T06:46:24.729Z,98980.78
2022-10-09T06:49:59.477Z,98984.61
2022-10-09T06:53:58.513Z,98991.08
2022-10-09T06:57:38.502Z,98993.12
2022-10-09T07:01:03.711Z,98995.95
2022-10-09T07:04:36.917Z,98998.77
2022-10-09T07:08:33.357Z,98997.53
2022-10-09T07:11:53.982Z,99000.90
2022-10-09T07:15:50.707Z,99004.52
2022-10-09T07:19:17.650Z,99005.56
2022-10-09T07:22:50.102Z,99009.34
2022-10-09T07:26:49.121Z,99014.08
2022-10-09T07:30:10.138Z,99016.90
2022-10-09T07:33:48.654Z,99019.02
2022-10-09T07:37:25.119Z,99023.59
2022-10-09T07:41:09.690Z,99026.61
2022-10-09T07:44:40.387Z,99037.13
2022-10-09T07:48:18.160Z,99035.10
2022-10-09T07:52:15.109Z,99038.27
2022-10-09T07:55:55.066Z,99042.04
2022-10-09T07:59:17.134Z,99042.14
2022-10-09T08:02:53.772Z,99041.63
2022-10-09T08:06:49.854Z,99049.27
2022-10-09T08:10:32.642Z,99050.20
2022-10-09T08:13:53.821Z,99053.14
2022-10-09T08:17:31.028Z,99057.62
2022-10-09T08:21:11.776Z,99054.46
2022-10-09T08:25:05.789Z,99055.70
2022-10-09T08:29:00.542Z,99059.92
2022-10-09T08:32:21.008Z,99064.19
2022-10-09T08:36:07.796Z,99059.63
2022-10-09T08:39:36.361Z,99068.27
2022-10-09T08:43:19.114Z,99073.28
2022-10-09T08:47:07.258Z,99074.66
2022-10-09T08:50:34.982Z,99070.95
2022-10-09T08:54:20.129Z,99076.15
2022-10-09T08:57:47.131Z,99076.50
2022-10-09T09:01:32.293Z,99076.23
2022-10-09T09:05:27.247Z,99075.47
2022-10-09T09:09:01.298Z,99080.20
2022-10-09T09:12:34.339Z,99076.26
2022-10-09T09:16:07.123Z,99076.63
2022-10-09T09:20:09.719Z,99078.73
2022-10-09T09:23:50.886Z,99084.11
2022-10-09T09:27:33.623Z,99085.55
2022-10-09T09:30:58.703Z,99082.18
2022-10-09T09:34:41.148Z,99085.80
2022-10-09T09:38:28.650Z,99081.95
2022-10-09T09:41:54.476Z,99074.95
2022-10-09T09:45:28.751Z,99072.64
2022-10-09T09:49:28.578Z,99067.92
2022-10-09T09:52:49.394Z,99066.48
2022-10-09T09:57:07.020Z,99068.36
2022-10-09T10:00:23.364Z,99067.64
2022-10-09T10:04:02.009Z,99069.93
2022-10-09T10:07:39.008Z,99074.27
2022-10-09T10:11:35.187Z,99072.92
2022-10-09T10:14:55.901Z,99077.17
2022-10-09T10:18:54.422Z,99074.05
2022-10-09T10:22:25.903Z,99081.22
2022-10-09T10:25:59.200Z,99078.95
2022-10-09T10:30:04.731Z,99075.67
2022-10-09T10:33:29.856Z,99069.80
2022-10-09T10:37:15.510Z,99077.35
2022-10-09T10:41:21.714Z,99076.91
2022-10-09T10:45:04.176Z,99078.19
2022-10-09T10:48:29.037Z,99077.19
2022-10-09T10:52:27.457Z,99075.53
2022-10-09T10:56:00.223Z,99068.70
2022-10-09T11:00:07.812Z,99067.48
2022-10-09T11:03:28.305Z,99064.52
2022-10-09T11:07:25.455Z,99068.23
2022-10-09T11:11:12.728Z,99071.57
2022-10-09T11:14:48.178Z,99070.86
2022-10-09T11:18:24.133Z,99069.02
2022-10-09T11:22:30.942Z,99067.95
2022-10-09T11:26:13.330Z,99069.20
2022-10-09T11:30:01.308Z,99072.38
2022-10-09T11:33:33.858Z,99067.17
2022-10-09T11:37:07.145Z,99062.31
2022-10-09T11:40:42.286Z,99057.30
2022-10-09T11:44:46.297Z,99056.69
2022-10-09T11:48:33.237Z,99054.58
2022-10-09T11:52:43.126Z,99061.00
2022-10-09T11:56:29.092Z,99053.34
2022-10-09T11:59:49.917Z,99049.27
2022-10-09T12:03:36.531Z,99047.17
2022-10-09T12:07:09.441Z,99042.59
2022-10-09T12:10:53.778Z,99040.59
2022-10-09T12:14:27.654Z,99039.27
2022-10-09T12:17:58.041Z,99046.29
2022-10-09T12:21:43.199Z,99042.23
2022-10-09T12:25:24.464Z,99038.77
2022-10-09T12:28:55.113Z,99035.04
2022-10-09T12:32:45.299Z,99033.59
2022-10-09T12:36:23.965Z,99033.07
2022-10-09T12:39:47.024Z,99032.17
2022-10-09T12:43:46.364Z,99036.84
2022-10-09T12:47:15.292Z,99033.61
2022-10-09T12:50:45.889Z,99033.17
2022-10-09T12:54:27.452Z,99027.32
2022-10-09T12:58:05.258Z,99026.64
2022-10-09T13:01:41.987Z,99025.84
2022-10-09T13:05:16.987Z,99025.64
2022-10-09T13:09:02.018Z,99029.33
2022-10-09T13:12:32.924Z,99021.42
2022-10-09T13:16:12.672Z,99019.70
2022-10-09T13:19:53.336Z,99025.09
2022-10-09T13:23:43.633Z,99018.27
2022-10-09T13:27:05.305Z,99019.63
2022-10-09T13:30:41.823Z,99015.65
2022-10-09T13:34:23.848Z,99019.48
2022-10-09T13:37:56.950Z,99021.20
2022-10-09T13:41:55.450Z,99023.62
2022-10-09T13:45:18.705Z,99031.77
2022-10-09T13:48:53.664Z,99033.11
2022-10-09T13:52:31.200Z,99030.02
2022-10-09T13:56:09.747Z,99023.34
2022-10-09T13:59:47.559Z,99022.73
2022-10-09T14:03:24.548Z,99021.81
2022-10-09T14:07:02.089Z,99021.11
2022-10-09T14:10:44.032Z,99017.81
2022-10-09T14:14:17.948Z,99015.35
2022-10-09T14:18:14.359Z,99010.50
2022-10-09T14:21:55.361Z,99006.95
2022-10-09T14:25:16.499Z,99008.02
2022-10-09T14:28:55.064Z,99010.69
2022-10-09T14:32:31.553Z,99007.67
2022-10-09T14:36:14.481Z,99002.30
2022-10-09T14:39:48.841Z,98999.68
2022-10-09T14:43:24.452Z,98997.71
2022-10-09T14:47:02.230Z,98998.61
2022-10-09T14:50:39.916Z,98997.75
2022-10-09T14:54:17.561Z,98996.41
2022-10-09T14:58:14.040Z,98995.98
2022-10-09T15:01:38.488Z,98994.17
2022-10-09T15:05:12.215Z,98991.55
2022-10-09T15:09:03.121Z,98985.42
2022-10-09T15:12:46.493Z,98980.91
2022-10-09T15:16:14.473Z,98983.89
2022-10-09T15:20:06.757Z,98976.08
2022-10-09T15:23:47.222Z,98973.83
2022-10-09T15:27:07.590Z,98972.95
2022-10-09T15:30:53.917Z,98976.76
2022-10-09T15:34:22.924Z,98974.79
2022-10-09T15:38:22.544Z,98978.12
2022-10-09T15:42:05.450Z,98978.29
2022-10-09T15:45:26.055Z,98973.63
2022-10-09T15:49:22.491Z,98980.46
2022-10-09T15:52:42.995Z,98983.92
2022-10-09T15:56:40.763Z,98983.02
2022-10-09T16:00:04.349Z,98984.13
2022-10-09T16:03:40.874Z,98983.68
2022-10-09T16:07:17.952Z,98985.93
2022-10-09T16:11:18.997Z,98980.69
2022-10-09T16:14:49.876Z,98984.80
2022-10-09T16:18:44.313Z,98985.35
2022-10-09T16:22:05.934Z,98991.90
2022-10-09T16:26:02.458Z,98997.73
2022-10-09T16:29:23.195Z,99000.68
2022-10-09T16:33:19.854Z,99002.04
2022-10-09T16:36:40.504Z,99002.14
2022-10-09T16:40:18.143Z,99002.39
2022-10-09T16:43:57.877Z,99005.15
2022-10-09T16:47:34.226Z,99008.77
2022-10-09T16:51:14.210Z,99011.32
2022-10-09T16:54:51.399Z,99012.30
2022-10-09T16:58:26.855Z,99017.87
2022-10-09T17:02:04.270Z,99020.02
2022-10-09T17:05:41.998Z,99017.96
2022-10-09T17:09:19.977Z,99017.89
2022-10-09T17:13:18.840Z,99021.16
2022-10-09T17:16:58.309Z,99019.68
2022-10-09T17:20:18.818Z,99021.70
2022-10-09T17:24:00.801Z,99023.48
2022-10-09T17:27:34.173Z,99019.02
2022-10-09T17:31:14.593Z,99020.22
2022-10-09T17:34:51.246Z,99021.45
2022-10-09T17:38:27.237Z,99024.22
2022-10-09T17:42:07.048Z,99019.89
2022-10-09T17:45:49.886Z,99024.31
2022-10-09T17:49:20.299Z,99023.25
2022-10-09T17:52:57.898Z,99024.03
2022-10-09T17:56:35.740Z,99028.66
2022-10-09T18:00:16.593Z,99032.02
2022-10-09T18:03:52.258Z,99024.55
2022-10-09T18:07:29.625Z,99025.33
2022-10-09T18:11:10.262Z,99030.02
2022-10-09T18:14:44.054Z,99033.02
2022-10-09T18:18:22.231Z,99034.06
2022-10-09T18:21:59.378Z,99038.35
2022-10-09T18:25:43.293Z,99037.70
2022-10-09T18:29:17.238Z,99049.40
2022-10-09T18:32:52.702Z,99048.38
2022-10-09T18:36:34.904Z,99052.71
2022-10-09T18:40:08.493Z,99049.31
2022-10-09T18:43:45.598Z,99048.95
2022-10-09T18:47:26.346Z,99051.27
2022-10-09T18:51:06.981Z,99052.60
2022-10-09T18:54:40.014Z,99046.21
2022-10-09T18:58:16.146Z,99048.71
2022-10-09T19:01:53.750Z,99048.86
2022-10-09T19:05:33.620Z,99059.06
2022-10-09T19:09:09.279Z,99064.60
2022-10-09T19:12:46.761Z,99064.14
2022-10-09T19:16:24.694Z,99065.09
2022-10-09T19:20:02.146Z,99067.92
2022-10-09T19:23:40.196Z,99074.80
2022-10-09T19:27:17.552Z,99078.64
2022-10-09T19:31:00.062Z,99079.73
2022-10-09T19:34:32.887Z,99083.27
2022-10-09T19:38:10.498Z,99083.71
2022-10-09T19:41:51.104Z,99082.24
2022-10-09T19:45:48.431Z,99080.14
2022-10-09T19:49:09.610Z,99073.20
2022-10-09T19:53:09.021Z,99068.81
2022-10-09T19:56:33.321Z,99070.07
2022-10-09T20:00:09.070Z,99071.05
2022-10-09T20:03:49.230Z,99071.30
2022-10-09T20:07:23.502Z,99076.59
2022-10-09T20:11:03.690Z,99077.06
2022-10-09T20:14:38.891Z,99078.41
2022-10-09T20:18:16.415Z,99073.39
2022-10-09T20:21:58.123Z,99068.04
2022-10-09T20:25:31.808Z,99065.86
2022-10-09T20:29:09.486Z,99067.08
2022-10-09T20:33:05.924Z,99064.05
2022-10-09T20:36:39.250Z,99067.61
2022-10-09T20:40:04.920Z,99065.04
2022-10-09T20:44:02.487Z,99061.88
2022-10-09T20:47:23.185Z,99059.50
2022-10-09T20:51:20.777Z,99055.30
2022-10-09T20:55:00.688Z,99052.57
2022-10-09T20:58:21.453Z,99049.24
2022-10-09T21:01:58.956Z,99048.44
2022-10-09T21:05:45.142Z,99046.04
2022-10-09T21:09:14.357Z,99046.67
2022-10-09T21:12:52.224Z,99041.52
2022-10-09T21:16:30.080Z,99046.97
2022-10-09T21:20:12.693Z,99040.04
2022-10-09T21:24:05.151Z,99041.46
2022-10-09T21:27:44.673Z,99047.77
2022-10-09T21:31:19.680Z,99046.27
2022-10-09T21:34:42.694Z,99049.27
2022-10-09T21:38:23.816Z,99055.28
2022-10-09T21:41:58.356Z,99050.83
2022-10-09T21:45:37.110Z,99046.49
2022-10-09T21:49:23.440Z,99043.00
2022-10-09T21:53:10.327Z,99043.20
2022-10-09T21:56:31.157Z,99049.80
2022-10-09T22:00:09.164Z,99044.88
2022-10-09T22:03:46.459Z,99036.58
2022-10-09T22:07:26.402Z,99041.04
2022-10-09T22:11:04.567Z,99035.13
2022-10-09T22:14:39.225Z,99034.68
2022-10-09T22:18:16.994Z,99031.35
2022-10-09T22:22:13.389Z,99037.08
2022-10-09T22:25:34.352Z,99039.18
2022-10-09T22:29:30.675Z,99036.73
2022-10-09T22:32:55.080Z,99033.15
2022-10-09T22:36:31.948Z,99032.27
2022-10-09T22:40:07.116Z,99035.95
2022-10-09T22:44:05.818Z,99035.95
2022-10-09T22:47:26.308Z,99032.91
2022-10-09T22:51:10.409Z,99027.66
2022-10-09T22:54:41.783Z,99029.77
2022-10-09T22:58:19.481Z,99032.15
2022-10-09T23:01:58.369Z,99030.86
2022-10-09T23:05:53.480Z,99027.80
2022-10-09T23:09:15.617Z,99024.44
2022-10-09T23:12:51.875Z,99021.90
2022-10-09T23:16:31.288Z,99020.30
2022-10-09T23:20:07.250Z,99016.69
2022-10-09T23:23:48.829Z,99018.21
2022-10-09T23:27:41.014Z,99014.73
2022-10-09T23:31:10.118Z,99018.56
2022-10-09T23:34:38.996Z,99023.90
2022-10-09T23:38:16.577Z,99019.48
2022-10-09T23:41:54.212Z,99019.34
2022-10-09T23:45:51.425Z,99015.59
2022-10-09T23:49:12.017Z,99005.17
2022-10-09T23:52:50.058Z,99004.39
2022-10-09T23:56:33.172Z,99002.91
